Time,TemperatureF,DewpointF,PressureIn,WindDirection,WindDirectionDegrees,WindSpeedMPH,WindSpeedGustMPH,Humidity,HourlyPrecipIn,Conditions,Clouds,dailyrainin,SoftwareType,DateUTC
2014-01-11 00:01:00,32.0,29.9,30.26,SW,225,0.0,0.0,92,0.01,,,0.00,Weather View 32 v70,2014-01-11 05:01:00,
2014-01-11 00:02:00,32.0,29.9,30.26,SW,225,0.0,0.0,92,0.01,,,0.00,Weather View 32 v70,2014-01-11 05:02:00,
2014-01-11 00:03:00,32.0,29.9,30.26,SW,225,0.0,0.0,92,0.01,,,0.00,Weather View 32 v70,2014-01-11 05:03:00,
2014-01-11 00:08:00,32.0,29.9,30.26,SW,225,0.0,0.0,92,0.02,,,0.01,Weather View 32 v70,2014-01-11 05:08:00,
2014-01-11 00:13:00,32.0,32.0,30.25,SW,225,0.0,0.0,100,0.02,,,0.01,Weather View 32 v70,2014-01-11 05:13:00,
2014-01-11 00:18:00,32.0,32.0,30.25,SW,225,0.0,0.0,100,0.02,,,0.01,Weather View 32 v70,2014-01-11 05:18:00,
2014-01-11 00:23:00,32.0,31.8,30.24,SW,225,0.0,0.0,99,0.02,,,0.01,Weather View 32 v70,2014-01-11 05:23:00,
2014-01-11 00:28:00,32.0,31.5,30.24,SW,225,0.0,0.0,98,0.01,,,0.01,Weather View 32 v70,2014-01-11 05:28:00,
2014-01-11 00:33:00,32.0,29.9,30.24,SW,225,0.0,0.0,92,0.02,,,0.02,Weather View 32 v70,2014-01-11 05:33:00,
2014-01-11 00:38:00,32.0,29.9,30.24,SW,225,0.0,0.0,92,0.02,,,0.02,Weather View 32 v70,2014-01-11 05:38:00,
2014-01-11 00:43:00,32.0,30.2,30.24,SW,225,0.0,0.0,93,0.02,,,0.02,Weather View 32 v70,2014-01-11 05:43:00,
2014-01-11 00:48:00,32.0,30.2,30.24,SW,225,0.0,0.0,93,0.02,,,0.02,Weather View 32 v70,2014-01-11 05:48:00,
2014-01-11 00:53:00,32.0,30.2,30.23,SW,225,0.0,0.0,93,0.02,,,0.02,Weather View 32 v70,2014-01-11 05:53:00,
2014-01-11 00:58:00,32.0,30.2,30.23,SW,225,0.0,0.0,93,0.02,,,0.02,Weather View 32 v70,2014-01-11 05:58:00,
2014-01-11 01:03:00,33.0,30.9,30.23,SW,225,0.0,0.0,92,0.03,,,0.03,Weather View 32 v70,2014-01-11 06:03:00,
2014-01-11 01:08:00,33.0,31.2,30.23,SE,135,0.0,0.0,93,0.02,,,0.03,Weather View 32 v70,2014-01-11 06:08:00,
2014-01-11 01:13:00,33.0,31.2,30.23,SE,135,0.0,0.0,93,0.02,,,0.03,Weather View 32 v70,2014-01-11 06:13:00,
2014-01-11 01:18:00,33.0,31.2,30.23,SE,135,0.0,0.0,93,0.02,,,0.03,Weather View 32 v70,2014-01-11 06:18:00,
2014-01-11 01:23:00,33.0,31.2,30.22,WSW,248,0.0,0.0,93,0.02,,,0.03,Weather View 32 v70,2014-01-11 06:23:00,
2014-01-11 01:28:00,33.0,32.0,30.22,SW,225,0.0,0.0,96,0.03,,,0.04,Weather View 32 v70,2014-01-11 06:28:00,
2014-01-11 01:33:00,33.0,32.0,30.22,SSW,202,0.0,0.0,96,0.02,,,0.04,Weather View 32 v70,2014-01-11 06:33:00,
2014-01-11 01:38:00,33.0,32.7,30.22,SW,225,0.0,0.0,99,0.02,,,0.04,Weather View 32 v70,2014-01-11 06:38:00,
2014-01-11 01:43:00,33.0,32.7,30.22,SW,225,0.0,0.0,99,0.02,,,0.04,Weather View 32 v70,2014-01-11 06:43:00,
2014-01-11 01:49:00,33.0,30.9,30.22,West,270,0.0,0.0,92,0.02,,,0.04,Weather View 32 v70,2014-01-11 06:49:00,
2014-01-11 01:54:00,33.0,30.9,30.22,WSW,248,0.0,0.0,92,0.02,,,0.04,Weather View 32 v70,2014-01-11 06:54:00,
2014-01-11 01:59:00,33.0,30.9,30.22,SW,225,0.0,0.0,92,0.02,,,0.04,Weather View 32 v70,2014-01-11 06:59:00,
2014-01-11 02:04:00,33.0,30.9,30.22,South,180,0.0,0.0,92,0.01,,,0.04,Weather View 32 v70,2014-01-11 07:04:00,
2014-01-11 02:09:00,33.0,30.9,30.21,SW,225,0.0,0.0,92,0.01,,,0.04,Weather View 32 v70,2014-01-11 07:09:00,
2014-01-11 02:14:00,33.0,30.9,30.21,West,270,0.0,0.0,92,0.01,,,0.04,Weather View 32 v70,2014-01-11 07:14:00,
2014-01-11 02:19:00,33.0,30.9,30.21,West,270,0.0,0.0,92,0.01,,,0.04,Weather View 32 v70,2014-01-11 07:19:00,
2014-01-11 02:24:00,33.0,30.9,30.21,WSW,248,0.0,0.0,92,0.01,,,0.04,Weather View 32 v70,2014-01-11 07:24:00,
2014-01-11 02:29:00,33.0,30.9,30.21,SW,225,0.0,0.0,92,0.00,,,0.04,Weather View 32 v70,2014-01-11 07:29:00,
2014-01-11 02:34:00,33.0,31.2,30.20,SW,225,0.0,0.0,93,0.00,,,0.04,Weather View 32 v70,2014-01-11 07:34:00,
2014-01-11 02:39:00,33.0,31.2,30.20,SW,225,0.0,0.0,93,0.00,,,0.04,Weather View 32 v70,2014-01-11 07:39:00,
2014-01-11 02:44:00,33.0,31.2,30.19,West,270,0.0,0.0,93,0.00,,,0.04,Weather View 32 v70,2014-01-11 07:44:00,
2014-01-11 02:49:00,33.0,31.2,30.20,WSW,248,0.0,0.0,93,0.00,,,0.04,Weather View 32 v70,2014-01-11 07:49:00,
2014-01-11 02:54:00,32.0,30.2,30.20,SW,225,0.0,0.0,93,0.00,,,0.04,Weather View 32 v70,2014-01-11 07:54:00,
2014-01-11 02:59:00,33.0,31.2,30.19,ESE,112,0.0,0.0,93,0.00,,,0.04,Weather View 32 v70,2014-01-11 07:59:00,
2014-01-11 03:04:00,33.0,31.2,30.18,East,90,0.0,0.0,93,0.00,,,0.04,Weather View 32 v70,2014-01-11 08:04:00,
2014-01-11 03:09:00,33.0,31.2,30.18,ESE,112,0.0,0.0,93,0.00,,,0.04,Weather View 32 v70,2014-01-11 08:09:00,
2014-01-11 03:14:00,33.0,31.2,30.18,SW,225,0.0,0.0,93,0.00,,,0.04,Weather View 32 v70,2014-01-11 08:14:00,
2014-01-11 03:19:00,33.0,31.2,30.18,West,270,0.0,0.0,93,0.00,,,0.04,Weather View 32 v70,2014-01-11 08:19:00,
2014-01-11 03:24:00,33.0,31.2,30.17,West,270,0.0,0.0,93,0.00,,,0.04,Weather View 32 v70,2014-01-11 08:24:00,
2014-01-11 03:29:00,33.0,31.2,30.17,West,270,0.0,0.0,93,0.00,,,0.04,Weather View 32 v70,2014-01-11 08:29:00,
2014-01-11 03:34:00,33.0,31.2,30.17,West,270,0.0,0.0,93,0.00,,,0.04,Weather View 32 v70,2014-01-11 08:34:00,
2014-01-11 03:39:00,33.0,31.2,30.16,West,270,0.0,0.0,93,0.00,,,0.04,Weather View 32 v70,2014-01-11 08:39:00,
2014-01-11 03:44:00,33.0,32.5,30.16,West,270,0.0,0.0,98,0.00,,,0.04,Weather View 32 v70,2014-01-11 08:44:00,
2014-01-11 03:49:00,33.0,32.7,30.15,SE,135,0.0,0.0,99,0.00,,,0.04,Weather View 32 v70,2014-01-11 08:49:00,
2014-01-11 03:54:00,33.0,31.5,30.15,SW,225,0.0,0.0,94,0.00,,,0.04,Weather View 32 v70,2014-01-11 08:54:00,
2014-01-11 03:59:00,33.0,31.2,30.15,NNW,338,0.0,0.0,93,0.00,,,0.04,Weather View 32 v70,2014-01-11 08:59:00,
2014-01-11 04:04:00,33.0,31.2,30.14,NNW,338,0.0,0.0,93,0.00,,,0.04,Weather View 32 v70,2014-01-11 09:04:00,
2014-01-11 04:09:00,33.0,31.2,30.14,ENE,68,0.0,0.0,93,0.00,,,0.04,Weather View 32 v70,2014-01-11 09:09:00,
2014-01-11 04:14:00,33.0,31.2,30.14,SE,135,0.0,0.0,93,0.00,,,0.04,Weather View 32 v70,2014-01-11 09:14:00,
2014-01-11 04:19:00,33.0,31.2,30.13,SE,135,0.0,0.0,93,0.00,,,0.04,Weather View 32 v70,2014-01-11 09:19:00,
2014-01-11 04:25:00,33.0,31.2,30.13,ENE,68,0.0,0.0,93,0.00,,,0.04,Weather View 32 v70,2014-01-11 09:25:00,
2014-01-11 04:30:00,33.0,31.2,30.13,East,90,0.0,0.0,93,0.00,,,0.04,Weather View 32 v70,2014-01-11 09:30:00,
2014-01-11 04:35:00,33.0,31.2,30.13,SE,135,0.0,0.0,93,0.00,,,0.04,Weather View 32 v70,2014-01-11 09:35:00,
2014-01-11 04:40:00,33.0,31.5,30.13,WSW,248,0.0,0.0,94,0.00,,,0.04,Weather View 32 v70,2014-01-11 09:40:00,
2014-01-11 04:45:00,33.0,31.2,30.13,WNW,292,0.0,0.0,93,0.00,,,0.04,Weather View 32 v70,2014-01-11 09:45:00,
2014-01-11 04:50:00,33.0,31.2,30.12,WNW,292,0.0,0.0,93,0.00,,,0.04,Weather View 32 v70,2014-01-11 09:50:00,
2014-01-11 04:55:00,33.0,31.2,30.11,NE,45,0.0,0.0,93,0.00,,,0.04,Weather View 32 v70,2014-01-11 09:55:00,
2014-01-11 05:00:00,33.0,31.2,30.11,ESE,112,0.0,0.0,93,0.00,,,0.04,Weather View 32 v70,2014-01-11 10:00:00,
2014-01-11 05:05:00,33.0,31.2,30.11,North,0,0.0,0.0,93,0.00,,,0.04,Weather View 32 v70,2014-01-11 10:05:00,
2014-01-11 05:10:00,33.0,31.2,30.11,SSW,202,0.0,0.0,93,0.01,,,0.05,Weather View 32 v70,2014-01-11 10:10:00,
2014-01-11 05:15:00,33.0,31.2,30.11,SW,225,0.0,0.0,93,0.01,,,0.05,Weather View 32 v70,2014-01-11 10:15:00,
2014-01-11 05:20:00,33.0,32.0,30.11,SSW,202,0.0,0.0,96,0.01,,,0.05,Weather View 32 v70,2014-01-11 10:20:00,
2014-01-11 05:25:00,33.0,32.7,30.11,SSW,202,0.0,0.0,99,0.01,,,0.05,Weather View 32 v70,2014-01-11 10:25:00,
2014-01-11 05:30:00,33.0,32.5,30.10,ENE,68,0.0,0.0,98,0.01,,,0.05,Weather View 32 v70,2014-01-11 10:30:00,
2014-01-11 05:35:00,34.0,32.7,30.11,SE,135,0.0,0.0,95,0.01,,,0.05,Weather View 32 v70,2014-01-11 10:35:00,
2014-01-11 05:40:00,34.0,32.2,30.10,NNE,22,0.0,0.0,93,0.01,,,0.05,Weather View 32 v70,2014-01-11 10:40:00,
2014-01-11 05:45:00,34.0,32.2,30.09,ESE,112,0.0,0.0,93,0.01,,,0.05,Weather View 32 v70,2014-01-11 10:45:00,
2014-01-11 05:50:00,34.0,32.2,30.09,ESE,112,0.0,0.0,93,0.01,,,0.05,Weather View 32 v70,2014-01-11 10:50:00,
2014-01-11 05:55:00,34.0,33.5,30.08,ESE,112,0.0,0.0,98,0.01,,,0.05,Weather View 32 v70,2014-01-11 10:55:00,
2014-01-11 06:00:00,34.0,32.7,30.08,SSE,158,0.0,0.0,95,0.01,,,0.05,Weather View 32 v70,2014-01-11 11:00:00,
2014-01-11 06:05:00,35.0,33.2,30.08,SW,225,0.0,0.0,93,0.01,,,0.05,Weather View 32 v70,2014-01-11 11:05:00,
2014-01-11 06:10:00,35.0,33.2,30.08,SSW,202,0.0,0.0,93,0.00,,,0.05,Weather View 32 v70,2014-01-11 11:10:00,
2014-01-11 06:15:00,35.0,33.4,30.08,SE,135,0.0,0.0,94,0.00,,,0.05,Weather View 32 v70,2014-01-11 11:15:00,
2014-01-11 06:20:00,35.0,33.4,30.07,ESE,112,0.0,0.0,94,0.00,,,0.05,Weather View 32 v70,2014-01-11 11:20:00,
2014-01-11 06:25:00,36.0,35.7,30.07,ESE,112,0.0,0.0,99,0.00,,,0.05,Weather View 32 v70,2014-01-11 11:25:00,
2014-01-11 06:30:00,37.0,35.4,30.06,East,90,0.0,0.0,94,0.00,,,0.05,Weather View 32 v70,2014-01-11 11:30:00,
2014-01-11 06:35:00,38.0,38.0,30.06,ENE,68,0.0,0.0,100,0.00,,,0.05,Weather View 32 v70,2014-01-11 11:35:00,
2014-01-11 06:40:00,40.0,40.0,30.06,SE,135,0.0,0.0,100,0.00,,,0.05,Weather View 32 v70,2014-01-11 11:40:00,
2014-01-11 06:45:00,40.0,39.7,30.06,ESE,112,0.0,0.0,99,0.00,,,0.05,Weather View 32 v70,2014-01-11 11:45:00,
2014-01-11 06:50:00,41.0,39.4,30.06,ESE,112,0.0,0.0,94,0.00,,,0.05,Weather View 32 v70,2014-01-11 11:50:00,
2014-01-11 06:55:00,41.0,39.9,30.05,East,90,0.0,0.0,96,0.00,,,0.05,Weather View 32 v70,2014-01-11 11:55:00,
2014-01-11 07:00:00,42.0,42.0,30.05,ESE,112,0.0,0.0,100,0.00,,,0.05,Weather View 32 v70,2014-01-11 12:00:00,
2014-01-11 07:05:00,42.0,42.0,30.04,East,90,0.0,0.0,100,0.00,,,0.05,Weather View 32 v70,2014-01-11 12:05:00,
2014-01-11 07:10:00,42.0,42.0,30.04,SE,135,0.0,0.0,100,0.00,,,0.05,Weather View 32 v70,2014-01-11 12:10:00,
2014-01-11 07:15:00,42.0,40.9,30.03,ENE,68,0.0,0.0,96,0.00,,,0.05,Weather View 32 v70,2014-01-11 12:15:00,
2014-01-11 07:20:00,43.0,41.1,30.03,ESE,112,0.0,0.0,93,0.00,,,0.05,Weather View 32 v70,2014-01-11 12:20:00,
2014-01-11 07:25:00,44.0,42.4,30.03,ENE,68,0.0,0.0,94,0.00,,,0.05,Weather View 32 v70,2014-01-11 12:25:00,
2014-01-11 07:30:00,45.0,43.4,30.02,SE,135,0.0,0.0,94,0.00,,,0.05,Weather View 32 v70,2014-01-11 12:30:00,
2014-01-11 07:35:00,45.0,45.0,30.01,ESE,112,0.0,0.0,100,0.00,,,0.05,Weather View 32 v70,2014-01-11 12:35:00,
2014-01-11 07:40:00,46.0,44.4,30.01,East,90,0.0,0.0,94,0.00,,,0.05,Weather View 32 v70,2014-01-11 12:40:00,
2014-01-11 07:45:00,46.0,46.0,30.01,SSE,158,0.0,0.0,100,0.00,,,0.05,Weather View 32 v70,2014-01-11 12:45:00,
2014-01-11 07:50:00,47.0,47.0,30.00,SW,225,0.0,7.0,100,0.00,,,0.05,Weather View 32 v70,2014-01-11 12:50:00,
2014-01-11 07:55:00,48.0,41.8,30.00,SSE,158,0.0,7.0,79,0.00,,,0.05,Weather View 32 v70,2014-01-11 12:55:00,
2014-01-11 08:00:00,48.0,46.4,29.99,SSW,202,0.0,7.0,94,0.00,,,0.05,Weather View 32 v70,2014-01-11 13:00:00,
2014-01-11 08:05:00,49.0,49.0,29.99,East,90,0.0,7.0,100,0.00,,,0.05,Weather View 32 v70,2014-01-11 13:05:00,
2014-01-11 08:10:00,49.0,49.0,29.98,ESE,112,0.0,7.0,100,0.00,,,0.05,Weather View 32 v70,2014-01-11 13:10:00,
2014-01-11 08:15:00,50.0,50.0,29.98,ENE,68,0.0,7.0,100,0.00,,,0.05,Weather View 32 v70,2014-01-11 13:15:00,
2014-01-11 08:20:00,50.0,48.3,29.98,South,180,0.0,7.0,94,0.00,,,0.05,Weather View 32 v70,2014-01-11 13:20:00,
2014-01-11 08:25:00,51.0,51.0,29.98,SW,225,0.0,7.0,100,0.00,,,0.05,Weather View 32 v70,2014-01-11 13:25:00,
2014-01-11 08:30:00,51.0,51.0,29.97,SSE,158,0.0,7.0,100,0.00,,,0.05,Weather View 32 v70,2014-01-11 13:30:00,
2014-01-11 08:35:00,51.0,51.0,29.97,ENE,68,0.0,7.0,100,0.00,,,0.05,Weather View 32 v70,2014-01-11 13:35:00,
2014-01-11 08:40:00,51.0,51.0,29.97,ESE,112,0.0,7.0,100,0.00,,,0.05,Weather View 32 v70,2014-01-11 13:40:00,
2014-01-11 08:45:00,51.0,51.0,29.97,SSW,202,0.0,7.0,100,0.00,,,0.05,Weather View 32 v70,2014-01-11 13:45:00,
2014-01-11 08:50:00,52.0,52.0,29.97,SW,225,0.0,7.0,100,0.00,,,0.05,Weather View 32 v70,2014-01-11 13:50:00,
2014-01-11 08:55:00,52.0,52.0,29.96,SE,135,0.0,7.0,100,0.00,,,0.05,Weather View 32 v70,2014-01-11 13:55:00,
2014-01-11 09:00:00,52.0,52.0,29.95,ESE,112,0.0,7.0,100,0.00,,,0.05,Weather View 32 v70,2014-01-11 14:00:00,
2014-01-11 09:05:00,52.0,52.0,29.94,West,270,0.0,7.0,100,0.00,,,0.05,Weather View 32 v70,2014-01-11 14:05:00,
2014-01-11 09:10:00,53.0,53.0,29.93,East,90,0.0,7.0,100,0.00,,,0.05,Weather View 32 v70,2014-01-11 14:10:00,
2014-01-11 09:15:00,53.0,52.2,29.93,East,90,2.0,7.0,97,0.00,,,0.05,Weather View 32 v70,2014-01-11 14:15:00,
2014-01-11 09:20:00,53.0,53.0,29.94,ESE,112,0.0,7.0,100,0.00,,,0.05,Weather View 32 v70,2014-01-11 14:20:00,
2014-01-11 09:25:00,53.0,51.9,29.94,SSE,158,0.0,7.0,96,0.00,,,0.05,Weather View 32 v70,2014-01-11 14:25:00,
2014-01-11 09:30:00,54.0,54.0,29.93,South,180,5.0,7.0,100,0.00,,,0.05,Weather View 32 v70,2014-01-11 14:30:00,
2014-01-11 09:35:00,54.0,53.2,29.93,East,90,0.0,8.0,97,0.00,,,0.05,Weather View 32 v70,2014-01-11 14:35:00,
2014-01-11 09:40:00,54.0,52.0,29.94,East,90,0.0,8.0,93,0.00,,,0.05,Weather View 32 v70,2014-01-11 14:40:00,
2014-01-11 09:45:00,54.0,52.3,29.93,SSW,202,0.0,8.0,94,0.00,,,0.05,Weather View 32 v70,2014-01-11 14:45:00,
2014-01-11 09:50:00,54.0,52.0,29.93,SSW,202,0.0,8.0,93,0.00,,,0.05,Weather View 32 v70,2014-01-11 14:50:00,
2014-01-11 09:55:00,54.0,54.0,29.93,West,270,0.0,8.0,100,0.00,,,0.05,Weather View 32 v70,2014-01-11 14:55:00,
2014-01-11 10:00:00,55.0,55.0,29.92,SW,225,0.0,8.0,100,0.00,,,0.05,Weather View 32 v70,2014-01-11 15:00:00,
2014-01-11 10:05:00,55.0,55.0,29.92,SSE,158,1.0,8.0,100,0.00,,,0.05,Weather View 32 v70,2014-01-11 15:05:00,
2014-01-11 10:10:00,55.0,53.3,29.91,SW,225,0.0,8.0,94,0.00,,,0.05,Weather View 32 v70,2014-01-11 15:10:00,
2014-01-11 10:15:00,55.0,55.0,29.90,SSE,158,0.0,8.0,100,0.00,,,0.05,Weather View 32 v70,2014-01-11 15:15:00,
2014-01-11 10:20:00,56.0,56.0,29.90,SSW,202,0.0,12.0,100,0.00,,,0.05,Weather View 32 v70,2014-01-11 15:20:00,
2014-01-11 10:25:00,56.0,55.2,29.89,SSE,158,3.0,12.0,97,0.00,,,0.05,Weather View 32 v70,2014-01-11 15:25:00,
2014-01-11 10:30:00,56.0,55.7,29.89,WSW,248,0.0,12.0,99,0.00,,,0.05,Weather View 32 v70,2014-01-11 15:30:00,
2014-01-11 10:35:00,56.0,56.0,29.88,SW,225,11.0,18.0,100,0.00,,,0.05,Weather View 32 v70,2014-01-11 15:35:00,
2014-01-11 10:40:00,57.0,55.9,29.88,SW,225,12.0,20.0,96,0.00,,,0.05,Weather View 32 v70,2014-01-11 15:40:00,
2014-01-11 10:45:00,57.0,57.0,29.88,South,180,4.0,20.0,100,0.00,,,0.05,Weather View 32 v70,2014-01-11 15:45:00,
2014-01-11 10:50:00,57.0,56.7,29.87,West,270,8.0,20.0,99,0.00,,,0.05,Weather View 32 v70,2014-01-11 15:50:00,
2014-01-11 10:55:00,57.0,56.7,29.87,SSW,202,11.0,21.0,99,0.00,,,0.05,Weather View 32 v70,2014-01-11 15:55:00,
2014-01-11 11:00:00,57.0,57.0,29.86,SSW,202,3.0,21.0,100,0.00,,,0.05,Weather View 32 v70,2014-01-11 16:00:00,
2014-01-11 11:05:00,57.0,56.4,29.85,SW,225,4.0,21.0,98,0.00,,,0.05,Weather View 32 v70,2014-01-11 16:05:00,
2014-01-11 11:10:00,57.0,56.7,29.85,SSW,202,11.0,21.0,99,0.00,,,0.05,Weather View 32 v70,2014-01-11 16:10:00,
2014-01-11 11:15:00,57.0,56.7,29.84,SW,225,7.0,21.0,99,0.00,,,0.05,Weather View 32 v70,2014-01-11 16:15:00,
2014-01-11 11:20:00,57.0,57.0,29.83,NNE,22,3.0,21.0,100,0.00,,,0.05,Weather View 32 v70,2014-01-11 16:20:00,
2014-01-11 11:25:00,57.0,53.8,29.83,SW,225,6.0,21.0,89,0.00,,,0.05,Weather View 32 v70,2014-01-11 16:25:00,
2014-01-11 11:30:00,57.0,53.5,29.83,SW,225,7.0,21.0,88,0.00,,,0.05,Weather View 32 v70,2014-01-11 16:30:00,
2014-01-11 11:35:00,57.0,53.2,29.82,SSW,202,17.0,21.0,87,0.00,,,0.05,Weather View 32 v70,2014-01-11 16:35:00,
2014-01-11 11:40:00,57.0,53.2,29.83,SSE,158,3.0,24.0,87,0.00,,,0.05,Weather View 32 v70,2014-01-11 16:40:00,
2014-01-11 11:45:00,57.0,53.2,29.82,NNE,22,2.0,24.0,87,0.00,,,0.05,Weather View 32 v70,2014-01-11 16:45:00,
2014-01-11 11:50:00,56.0,52.2,29.82,South,180,12.0,24.0,87,0.00,,,0.05,Weather View 32 v70,2014-01-11 16:50:00,
2014-01-11 11:55:00,56.0,52.2,29.81,SSE,158,4.0,24.0,87,0.00,,,0.05,Weather View 32 v70,2014-01-11 16:55:00,
2014-01-11 12:00:00,56.0,52.5,29.79,SSW,202,0.0,24.0,88,0.00,,,0.05,Weather View 32 v70,2014-01-11 17:00:00,
2014-01-11 12:05:00,56.0,52.5,29.79,ESE,112,2.0,24.0,88,0.00,,,0.05,Weather View 32 v70,2014-01-11 17:05:00,
2014-01-11 12:10:00,56.0,52.5,29.78,SW,225,0.0,24.0,88,0.00,,,0.05,Weather View 32 v70,2014-01-11 17:10:00,
2014-01-11 12:15:00,56.0,52.8,29.77,ESE,112,4.0,24.0,89,0.00,,,0.05,Weather View 32 v70,2014-01-11 17:15:00,
2014-01-11 12:20:00,56.0,53.1,29.77,ENE,68,5.0,24.0,90,0.00,,,0.05,Weather View 32 v70,2014-01-11 17:20:00,
2014-01-11 12:25:00,56.0,52.8,29.76,SSW,202,9.0,24.0,89,0.00,,,0.05,Weather View 32 v70,2014-01-11 17:25:00,
2014-01-11 12:30:00,56.0,53.1,29.76,SSW,202,15.0,24.0,90,0.00,,,0.05,Weather View 32 v70,2014-01-11 17:30:00,
2014-01-11 12:35:00,56.0,53.1,29.76,SW,225,7.0,24.0,90,0.00,,,0.05,Weather View 32 v70,2014-01-11 17:35:00,
2014-01-11 12:40:00,56.0,53.1,29.75,SSE,158,3.0,24.0,90,0.00,,,0.05,Weather View 32 v70,2014-01-11 17:40:00,
2014-01-11 12:45:00,56.0,54.3,29.75,SSE,158,9.0,24.0,94,0.00,,,0.05,Weather View 32 v70,2014-01-11 17:45:00,
2014-01-11 12:50:00,57.0,55.6,29.74,SSE,158,6.0,24.0,95,0.00,,,0.05,Weather View 32 v70,2014-01-11 17:50:00,
2014-01-11 12:55:00,57.0,55.6,29.74,SSE,158,1.0,24.0,95,0.00,,,0.05,Weather View 32 v70,2014-01-11 17:55:00,
2014-01-11 13:00:00,57.0,53.5,29.73,NNW,338,0.0,27.0,88,0.00,,,0.05,Weather View 32 v70,2014-01-11 18:00:00,
2014-01-11 13:05:00,57.0,53.5,29.72,SW,225,2.0,27.0,88,0.01,,,0.06,Weather View 32 v70,2014-01-11 18:05:00,
2014-01-11 13:10:00,57.0,53.8,29.71,SW,225,7.0,27.0,89,0.01,,,0.06,Weather View 32 v70,2014-01-11 18:10:00,
2014-01-11 13:15:00,57.0,54.1,29.70,SSW,202,10.0,27.0,90,0.01,,,0.06,Weather View 32 v70,2014-01-11 18:15:00,
2014-01-11 13:20:00,57.0,54.1,29.70,SSW,202,6.0,27.0,90,0.03,,,0.08,Weather View 32 v70,2014-01-11 18:20:00,
2014-01-11 13:25:00,57.0,54.1,29.69,WSW,248,4.0,27.0,90,0.03,,,0.09,Weather View 32 v70,2014-01-11 18:25:00,
2014-01-11 13:30:00,57.0,54.4,29.68,SSE,158,6.0,27.0,91,0.04,,,0.09,Weather View 32 v70,2014-01-11 18:30:00,
2014-01-11 13:35:00,57.0,54.7,29.68,SSW,202,4.0,27.0,92,0.04,,,0.09,Weather View 32 v70,2014-01-11 18:35:00,
2014-01-11 13:40:00,57.0,54.1,29.68,WSW,248,12.0,27.0,90,0.04,,,0.09,Weather View 32 v70,2014-01-11 18:40:00,
2014-01-11 13:45:00,57.0,54.4,29.67,South,180,5.0,27.0,91,0.04,,,0.09,Weather View 32 v70,2014-01-11 18:45:00,
2014-01-11 13:50:00,57.0,54.7,29.67,SW,225,5.0,27.0,92,0.04,,,0.09,Weather View 32 v70,2014-01-11 18:50:00,
2014-01-11 13:55:00,57.0,54.4,29.66,SW,225,7.0,27.0,91,0.04,,,0.09,Weather View 32 v70,2014-01-11 18:55:00,
2014-01-11 14:01:00,57.0,54.4,29.66,SSW,202,5.0,24.0,91,0.04,,,0.09,Weather View 32 v70,2014-01-11 19:01:00,
2014-01-11 14:06:00,57.0,54.4,29.66,South,180,9.0,24.0,91,0.03,,,0.09,Weather View 32 v70,2014-01-11 19:06:00,
2014-01-11 14:11:00,57.0,54.4,29.65,SSW,202,2.0,24.0,91,0.03,,,0.09,Weather View 32 v70,2014-01-11 19:11:00,
2014-01-11 14:16:00,57.0,54.4,29.65,South,180,6.0,24.0,91,0.03,,,0.09,Weather View 32 v70,2014-01-11 19:16:00,
2014-01-11 14:21:00,57.0,54.4,29.64,SSE,158,4.0,24.0,91,0.01,,,0.09,Weather View 32 v70,2014-01-11 19:21:00,
2014-01-11 14:26:00,57.0,54.4,29.64,SW,225,2.0,24.0,91,0.00,,,0.09,Weather View 32 v70,2014-01-11 19:26:00,
2014-01-11 14:31:00,57.0,54.7,29.63,SW,225,8.0,24.0,92,0.00,,,0.09,Weather View 32 v70,2014-01-11 19:31:00,
2014-01-11 14:36:00,57.0,54.7,29.62,WSW,248,0.0,24.0,92,0.00,,,0.09,Weather View 32 v70,2014-01-11 19:36:00,
2014-01-11 14:41:00,57.0,54.7,29.62,SW,225,0.0,24.0,92,0.00,,,0.09,Weather View 32 v70,2014-01-11 19:41:00,
2014-01-11 14:46:00,57.0,55.0,29.61,South,180,2.0,23.0,93,0.00,,,0.09,Weather View 32 v70,2014-01-11 19:46:00,
2014-01-11 14:51:00,57.0,56.4,29.60,SSW,202,7.0,23.0,98,0.00,,,0.09,Weather View 32 v70,2014-01-11 19:51:00,
2014-01-11 14:56:00,57.0,56.4,29.59,South,180,7.0,23.0,98,0.00,,,0.09,Weather View 32 v70,2014-01-11 19:56:00,
2014-01-11 15:01:00,57.0,56.2,29.59,SSE,158,6.0,19.0,97,0.01,,,0.10,Weather View 32 v70,2014-01-11 20:01:00,
2014-01-11 15:06:00,57.0,54.4,29.58,East,90,3.0,19.0,91,0.01,,,0.10,Weather View 32 v70,2014-01-11 20:06:00,
2014-01-11 15:08:00,58.0,55.4,29.58,ENE,68,2.0,19.0,91,0.01,,,0.10,Weather View 32 v70,2014-01-11 20:08:00,
2014-01-11 15:13:00,58.0,55.4,29.58,NW,315,2.0,19.0,91,0.01,,,0.10,Weather View 32 v70,2014-01-11 20:13:00,
2014-01-11 15:18:00,58.0,55.4,29.57,ENE,68,3.0,19.0,91,0.03,,,0.12,Weather View 32 v70,2014-01-11 20:18:00,
2014-01-11 15:23:00,58.0,55.4,29.57,SW,225,4.0,19.0,91,0.03,,,0.12,Weather View 32 v70,2014-01-11 20:23:00,
2014-01-11 15:28:00,58.0,55.4,29.56,SSE,158,2.0,19.0,91,0.04,,,0.13,Weather View 32 v70,2014-01-11 20:28:00,
2014-01-11 15:33:00,58.0,55.4,29.55,SE,135,2.0,19.0,91,0.05,,,0.14,Weather View 32 v70,2014-01-11 20:33:00,
2014-01-11 15:38:00,58.0,55.7,29.55,ENE,68,0.0,19.0,92,0.05,,,0.14,Weather View 32 v70,2014-01-11 20:38:00,
2014-01-11 15:43:00,58.0,55.7,29.55,North,0,1.0,18.0,92,0.06,,,0.15,Weather View 32 v70,2014-01-11 20:43:00,
2014-01-11 15:48:00,58.0,55.7,29.55,SSW,202,1.0,18.0,92,0.06,,,0.15,Weather View 32 v70,2014-01-11 20:48:00,
2014-01-11 15:53:00,58.0,56.3,29.54,SSW,202,0.0,22.0,94,0.06,,,0.15,Weather View 32 v70,2014-01-11 20:53:00,
2014-01-11 15:58:00,58.0,55.7,29.55,SW,225,9.0,22.0,92,0.06,,,0.16,Weather View 32 v70,2014-01-11 20:58:00,
2014-01-11 16:03:00,59.0,51.4,29.54,SSW,202,7.0,22.0,76,0.06,,,0.16,Weather View 32 v70,2014-01-11 21:03:00,
2014-01-11 16:08:00,59.0,56.7,29.54,SSW,202,4.0,22.0,92,0.07,,,0.17,Weather View 32 v70,2014-01-11 21:08:00,
2014-01-11 16:13:00,59.0,56.7,29.53,SSE,158,5.0,22.0,92,0.08,,,0.18,Weather View 32 v70,2014-01-11 21:13:00,
2014-01-11 16:18:00,58.0,55.7,29.52,South,180,13.0,22.0,92,0.06,,,0.18,Weather View 32 v70,2014-01-11 21:18:00,
2014-01-11 16:23:00,58.0,55.7,29.53,SSW,202,3.0,22.0,92,0.06,,,0.18,Weather View 32 v70,2014-01-11 21:23:00,
2014-01-11 16:28:00,58.0,55.7,29.52,SSW,202,5.0,22.0,92,0.05,,,0.18,Weather View 32 v70,2014-01-11 21:28:00,
2014-01-11 16:33:00,58.0,55.7,29.52,SW,225,11.0,23.0,92,0.04,,,0.18,Weather View 32 v70,2014-01-11 21:33:00,
2014-01-11 16:36:00,58.0,55.7,29.51,ESE,112,2.0,23.0,92,0.04,,,0.18,Weather View 32 v70,2014-01-11 21:36:00,
2014-01-11 16:41:00,58.0,55.7,29.52,SSW,202,4.0,25.0,92,0.04,,,0.18,Weather View 32 v70,2014-01-11 21:41:00,
2014-01-11 16:46:00,58.0,55.7,29.50,SW,225,7.0,25.0,92,0.03,,,0.18,Weather View 32 v70,2014-01-11 21:46:00,
2014-01-11 16:51:00,58.0,55.7,29.50,SSW,202,10.0,25.0,92,0.03,,,0.18,Weather View 32 v70,2014-01-11 21:51:00,
2014-01-11 16:56:00,58.0,55.7,29.50,SSW,202,7.0,25.0,92,0.03,,,0.18,Weather View 32 v70,2014-01-11 21:56:00,
2014-01-11 17:01:00,57.0,54.7,29.49,South,180,10.0,25.0,92,0.06,,,0.22,Weather View 32 v70,2014-01-11 22:01:00,
2014-01-11 17:06:00,57.0,54.7,29.49,South,180,0.0,25.0,92,0.05,,,0.22,Weather View 32 v70,2014-01-11 22:06:00,
2014-01-11 17:11:00,57.0,54.7,29.49,SSE,158,7.0,25.0,92,0.04,,,0.22,Weather View 32 v70,2014-01-11 22:11:00,
2014-01-11 17:16:00,57.0,54.7,29.48,SW,225,2.0,25.0,92,0.05,,,0.23,Weather View 32 v70,2014-01-11 22:16:00,
2014-01-11 17:21:00,57.0,54.7,29.47,SSW,202,4.0,25.0,92,0.05,,,0.23,Weather View 32 v70,2014-01-11 22:21:00,
2014-01-11 17:26:00,57.0,54.7,29.47,SSW,202,7.0,25.0,92,0.05,,,0.23,Weather View 32 v70,2014-01-11 22:26:00,
2014-01-11 17:31:00,57.0,54.7,29.47,SSW,202,15.0,25.0,92,0.05,,,0.23,Weather View 32 v70,2014-01-11 22:31:00,
2014-01-11 17:36:00,57.0,54.7,29.46,SW,225,7.0,25.0,92,0.06,,,0.24,Weather View 32 v70,2014-01-11 22:36:00,
2014-01-11 17:41:00,57.0,54.7,29.46,SW,225,7.0,25.0,92,0.06,,,0.24,Weather View 32 v70,2014-01-11 22:41:00,
2014-01-11 17:46:00,57.0,54.7,29.45,SW,225,0.0,22.0,92,0.06,,,0.24,Weather View 32 v70,2014-01-11 22:46:00,
2014-01-11 17:51:00,57.0,54.7,29.45,South,180,4.0,22.0,92,0.08,,,0.26,Weather View 32 v70,2014-01-11 22:51:00,
2014-01-11 17:56:00,57.0,54.7,29.44,SSW,202,4.0,22.0,92,0.08,,,0.26,Weather View 32 v70,2014-01-11 22:56:00,
2014-01-11 18:01:00,57.0,54.7,29.44,West,270,6.0,22.0,92,0.04,,,0.26,Weather View 32 v70,2014-01-11 23:01:00,
2014-01-11 18:06:00,57.0,54.7,29.44,South,180,16.0,22.0,92,0.04,,,0.26,Weather View 32 v70,2014-01-11 23:06:00,
2014-01-11 18:11:00,57.0,54.7,29.43,South,180,10.0,22.0,92,0.04,,,0.26,Weather View 32 v70,2014-01-11 23:11:00,
2014-01-11 18:16:00,57.0,54.7,29.43,SSW,202,3.0,22.0,92,0.03,,,0.26,Weather View 32 v70,2014-01-11 23:16:00,
2014-01-11 18:21:00,57.0,54.7,29.42,South,180,8.0,23.0,92,0.04,,,0.28,Weather View 32 v70,2014-01-11 23:21:00,
2014-01-11 18:26:00,57.0,54.7,29.41,SSW,202,5.0,23.0,92,0.05,,,0.28,Weather View 32 v70,2014-01-11 23:26:00,
2014-01-11 18:31:00,57.0,54.7,29.42,South,180,5.0,23.0,92,0.11,,,0.35,Weather View 32 v70,2014-01-11 23:31:00,
2014-01-11 18:36:00,57.0,54.7,29.41,SW,225,4.0,23.0,92,0.15,,,0.39,Weather View 32 v70,2014-01-11 23:36:00,
2014-01-11 18:41:00,57.0,54.7,29.41,SSW,202,6.0,23.0,92,0.19,,,0.43,Weather View 32 v70,2014-01-11 23:41:00,
2014-01-11 18:46:00,57.0,54.7,29.40,SSE,158,7.0,23.0,92,0.20,,,0.44,Weather View 32 v70,2014-01-11 23:46:00,
2014-01-11 18:51:00,57.0,54.7,29.39,SW,225,4.0,23.0,92,0.18,,,0.44,Weather View 32 v70,2014-01-11 23:51:00,
2014-01-11 18:56:00,57.0,54.7,29.38,SSE,158,4.0,23.0,92,0.19,,,0.45,Weather View 32 v70,2014-01-11 23:56:00,
2014-01-11 19:01:00,57.0,54.7,29.37,SSW,202,3.0,23.0,92,0.19,,,0.45,Weather View 32 v70,2014-01-12 00:01:00,
2014-01-11 19:06:00,57.0,54.7,29.37,SSE,158,4.0,23.0,92,0.20,,,0.46,Weather View 32 v70,2014-01-12 00:06:00,
2014-01-11 19:11:00,57.0,54.7,29.36,SSW,202,5.0,23.0,92,0.20,,,0.46,Weather View 32 v70,2014-01-12 00:11:00,
2014-01-11 19:16:00,57.0,54.7,29.36,SW,225,6.0,23.0,92,0.20,,,0.46,Weather View 32 v70,2014-01-12 00:16:00,
2014-01-11 19:21:00,57.0,54.7,29.35,SW,225,10.0,20.0,92,0.19,,,0.46,Weather View 32 v70,2014-01-12 00:21:00,
2014-01-11 19:26:00,57.0,54.7,29.37,SSW,202,10.0,20.0,92,0.18,,,0.47,Weather View 32 v70,2014-01-12 00:26:00,
2014-01-11 19:31:00,57.0,54.7,29.38,SSW,202,8.0,20.0,92,0.25,,,0.60,Weather View 32 v70,2014-01-12 00:31:00,
2014-01-11 19:36:00,57.0,54.7,29.39,SW,225,4.0,20.0,92,0.33,,,0.72,Weather View 32 v70,2014-01-12 00:36:00,
2014-01-11 19:40:00,57.0,54.7,29.38,West,270,5.0,20.0,92,0.37,,,0.79,Weather View 32 v70,2014-01-12 00:40:00,
2014-01-11 19:41:00,57.0,54.7,29.38,WSW,248,11.0,22.0,92,0.37,,,0.81,Weather View 32 v70,2014-01-12 00:41:00,